Heemstede, Netherlands
Current Conditions -  °F | °C
As of 3:25 AM on Saturday 25 Oct 2014 (Local Time) from EHAM Reporting Station
Haze Haze  
Wind Chill: 55°   Ceiling: 500
Heat Index: 55°   Visibility: 3mi
Dew Point: 55°   Wind: 10mph
Humidity: 100%   Direction: 210°SSW
Pressure: 29.94"   Gusts: NA
Location:  52.35°N, 4.62°E
Report Text: EHAM 250125Z 21009KT 5000 BR OVC005 13/13 Q1014 TEMPO 4500
Loading
Personal Weather Stations






























Interactive Weather Map
Tropical Storm Tracking
New forecast layout! Learn more

10-Day Weather Forecast

Advertisements
Track Severe Weather on mobile